Time,TemperatureF,DewpointF,PressureIn,WindDirection,WindDirectionDegrees,WindSpeedMPH,WindSpeedGustMPH,Humidity,HourlyPrecipIn,Conditions,Clouds,dailyrainin,SoftwareType,DateUTC
2013-06-20 00:00:00,73.4,71.9,30.01,North,11,0.0,0.0,95,0.00,,---,0.00,VWS V14.01,2013-06-20 04:00:00,
2013-06-20 00:01:00,73.4,71.9,30.01,North,11,0.0,0.0,95,0.00,,---,0.43,VWS V14.01,2013-06-20 04:01:00,
2013-06-20 00:02:00,73.4,71.9,30.01,North,11,0.0,0.0,95,0.00,,---,0.00,VWS V14.01,2013-06-20 04:02:00,
2013-06-20 00:05:00,73.4,71.9,30.01,NNE,12,0.0,0.0,95,0.00,,---,0.00,VWS V14.01,2013-06-20 04:05:00,
2013-06-20 00:07:00,73.4,71.9,30.01,North,11,0.0,0.0,95,0.00,,---,0.00,VWS V14.01,2013-06-20 04:07:00,
2013-06-20 00:10:00,73.4,71.9,30.01,North,11,0.0,0.0,95,0.00,,---,0.00,VWS V14.01,2013-06-20 04:10:00,
2013-06-20 00:12:00,73.4,71.9,30.01,NNE,12,0.0,0.0,95,0.00,,---,0.00,VWS V14.01,2013-06-20 04:12:00,
2013-06-20 00:15:00,73.4,71.9,30.02,NNE,12,0.0,0.0,95,0.00,,---,0.00,VWS V14.01,2013-06-20 04:15:00,
2013-06-20 00:17:00,73.4,71.9,30.02,NNE,12,0.0,0.0,95,0.00,,---,0.00,VWS V14.01,2013-06-20 04:17:00,
2013-06-20 00:20:00,73.4,71.9,30.02,NNE,12,0.0,0.0,95,0.00,,---,0.00,VWS V14.01,2013-06-20 04:20:00,
2013-06-20 00:22:00,73.4,71.9,30.01,NNE,12,0.0,0.0,95,0.00,,---,0.00,VWS V14.01,2013-06-20 04:22:00,
2013-06-20 00:25:00,73.4,71.9,30.01,NNE,12,0.0,0.0,95,0.00,,---,0.00,VWS V14.01,2013-06-20 04:25:00,
2013-06-20 00:27:00,73.4,71.9,30.01,North,11,0.0,0.0,95,0.00,,---,0.00,VWS V14.01,2013-06-20 04:27:00,
2013-06-20 00:30:00,73.4,71.9,30.01,North,11,0.0,0.0,95,0.00,,---,0.00,VWS V14.01,2013-06-20 04:30:00,
2013-06-20 00:32:00,73.4,71.9,30.01,NNE,12,0.0,0.0,95,0.00,,---,0.00,VWS V14.01,2013-06-20 04:32:00,
2013-06-20 00:35:00,73.4,71.9,30.01,NNE,12,0.0,0.0,95,0.00,,---,0.00,VWS V14.01,2013-06-20 04:35:00,
2013-06-20 00:37:00,73.4,71.9,30.01,North,11,0.0,0.0,95,0.00,,---,0.00,VWS V14.01,2013-06-20 04:37:00,
2013-06-20 00:40:00,73.4,71.9,30.01,NNE,12,0.0,0.0,95,0.00,,---,0.00,VWS V14.01,2013-06-20 04:40:00,
2013-06-20 00:42:00,73.4,71.9,30.01,NNE,12,0.0,0.0,95,0.00,,---,0.00,VWS V14.01,2013-06-20 04:42:00,
2013-06-20 00:45:00,73.5,72.0,30.02,North,11,0.0,0.0,95,0.00,,---,0.00,VWS V14.01,2013-06-20 04:45:00,
2013-06-20 00:47:00,73.5,72.0,30.02,NNE,12,0.0,0.0,95,0.00,,---,0.00,VWS V14.01,2013-06-20 04:47:00,
2013-06-20 00:50:00,73.5,72.0,30.02,NNE,12,0.0,0.0,95,0.00,,---,0.00,VWS V14.01,2013-06-20 04:50:00,
2013-06-20 00:52:00,73.5,72.0,30.02,NNE,12,0.0,0.0,95,0.00,,---,0.00,VWS V14.01,2013-06-20 04:52:00,
2013-06-20 00:55:00,73.6,72.1,30.02,NNE,12,0.0,0.0,95,0.00,,---,0.00,VWS V14.01,2013-06-20 04:55:00,
2013-06-20 00:57:00,73.7,72.2,30.02,NNE,12,0.0,0.0,95,0.00,,---,0.00,VWS V14.01,2013-06-20 04:57:00,
2013-06-20 01:00:00,73.7,72.2,30.02,NNE,12,0.0,0.0,95,0.00,,---,0.00,VWS V14.01,2013-06-20 05:00:00,
2013-06-20 01:02:00,73.7,72.2,30.02,NNE,12,0.0,0.0,95,0.00,,---,0.00,VWS V14.01,2013-06-20 05:02:00,
2013-06-20 01:05:00,73.9,72.7,30.02,North,11,0.0,0.0,96,0.00,,---,0.00,VWS V14.01,2013-06-20 05:05:00,
2013-06-20 01:07:00,73.9,72.7,30.03,NNE,12,0.0,0.0,96,0.00,,---,0.00,VWS V14.01,2013-06-20 05:07:00,
2013-06-20 01:10:00,73.9,72.4,30.03,NNE,12,0.0,0.0,95,0.00,,---,0.00,VWS V14.01,2013-06-20 05:10:00,
2013-06-20 01:12:00,73.9,72.4,30.03,North,11,0.0,0.0,95,0.00,,---,0.00,VWS V14.01,2013-06-20 05:12:00,
2013-06-20 01:15:00,73.9,72.4,30.03,North,11,0.0,0.0,95,0.00,,---,0.00,VWS V14.01,2013-06-20 05:15:00,
2013-06-20 01:17:00,73.9,72.4,30.03,North,11,0.0,0.0,95,0.00,,---,0.00,VWS V14.01,2013-06-20 05:17:00,
2013-06-20 01:20:00,73.8,72.3,30.03,NNE,12,0.0,0.0,95,0.00,,---,0.00,VWS V14.01,2013-06-20 05:20:00,
2013-06-20 01:22:00,73.9,72.4,30.02,North,11,0.0,0.0,95,0.00,,---,0.00,VWS V14.01,2013-06-20 05:22:00,
2013-06-20 01:25:00,73.7,72.2,30.03,North,11,0.0,0.0,95,0.00,,---,0.00,VWS V14.01,2013-06-20 05:25:00,
2013-06-20 01:27:00,73.7,72.2,30.03,NNE,12,0.0,0.0,95,0.00,,---,0.00,VWS V14.01,2013-06-20 05:27:00,
2013-06-20 01:30:00,73.7,72.2,30.03,NNE,12,0.0,0.0,95,0.00,,---,0.00,VWS V14.01,2013-06-20 05:30:00,
2013-06-20 01:32:00,73.7,72.2,30.03,NNE,12,0.0,0.0,95,0.00,,---,0.00,VWS V14.01,2013-06-20 05:32:00,
2013-06-20 01:35:00,73.7,72.2,30.03,NNE,12,0.0,0.0,95,0.00,,---,0.00,VWS V14.01,2013-06-20 05:35:00,
2013-06-20 01:37:00,73.7,72.2,30.03,NNE,12,0.0,0.0,95,0.00,,---,0.00,VWS V14.01,2013-06-20 05:37:00,
2013-06-20 01:40:00,73.7,72.5,30.03,North,11,0.0,0.0,96,0.00,,---,0.00,VWS V14.01,2013-06-20 05:40:00,
2013-06-20 01:42:00,73.7,72.5,30.02,North,11,0.0,0.0,96,0.00,,---,0.00,VWS V14.01,2013-06-20 05:42:00,
2013-06-20 01:45:00,73.7,72.5,30.03,NNE,12,0.0,0.0,96,0.00,,---,0.00,VWS V14.01,2013-06-20 05:45:00,
2013-06-20 01:47:00,73.7,72.5,30.03,NNE,12,0.0,0.0,96,0.00,,---,0.00,VWS V14.01,2013-06-20 05:47:00,
2013-06-20 01:50:00,73.7,72.5,30.03,NNE,12,0.0,0.0,96,0.00,,---,0.00,VWS V14.01,2013-06-20 05:50:00,
2013-06-20 01:52:00,73.7,72.5,30.02,North,11,0.0,0.0,96,0.00,,---,0.00,VWS V14.01,2013-06-20 05:52:00,
2013-06-20 01:55:00,73.6,72.4,30.03,NNE,12,0.0,0.0,96,0.00,,---,0.00,VWS V14.01,2013-06-20 05:55:00,
2013-06-20 01:57:00,73.6,72.4,30.03,North,11,0.0,0.0,96,0.00,,---,0.00,VWS V14.01,2013-06-20 05:57:00,
2013-06-20 02:00:00,73.6,72.1,30.02,North,11,0.0,0.0,95,0.00,,---,0.00,VWS V14.01,2013-06-20 06:00:00,
2013-06-20 02:02:00,73.6,72.1,30.02,North,11,0.0,0.0,95,0.00,,---,0.00,VWS V14.01,2013-06-20 06:02:00,
2013-06-20 02:05:00,73.6,72.4,30.02,NNE,12,0.0,0.0,96,0.00,,---,0.00,VWS V14.01,2013-06-20 06:05:00,
2013-06-20 02:07:00,73.6,72.4,30.02,NNE,12,0.0,0.0,96,0.00,,---,0.00,VWS V14.01,2013-06-20 06:07:00,
2013-06-20 02:10:00,73.7,72.5,30.02,NNE,12,0.0,0.0,96,0.00,,---,0.00,VWS V14.01,2013-06-20 06:10:00,
2013-06-20 02:12:00,73.7,72.5,30.02,North,11,0.0,0.0,96,0.00,,---,0.00,VWS V14.01,2013-06-20 06:12:00,
2013-06-20 02:15:00,73.7,72.5,30.02,North,11,0.0,0.0,96,0.00,,---,0.00,VWS V14.01,2013-06-20 06:15:00,
2013-06-20 02:17:00,73.7,72.5,30.02,North,11,0.0,0.0,96,0.00,,---,0.00,VWS V14.01,2013-06-20 06:17:00,
2013-06-20 02:20:00,73.6,72.4,30.02,North,11,0.0,0.0,96,0.00,,---,0.00,VWS V14.01,2013-06-20 06:20:00,
2013-06-20 02:22:00,73.5,72.3,30.02,NNE,12,0.0,0.0,96,0.00,,---,0.00,VWS V14.01,2013-06-20 06:22:00,
2013-06-20 02:25:00,73.5,72.0,30.01,NNE,12,0.0,0.0,95,0.00,,---,0.00,VWS V14.01,2013-06-20 06:25:00,
2013-06-20 02:27:00,73.5,72.0,30.01,North,11,0.0,0.0,95,0.00,,---,0.00,VWS V14.01,2013-06-20 06:27:00,
2013-06-20 02:30:00,73.5,72.0,30.01,NNE,12,0.0,0.0,95,0.00,,---,0.00,VWS V14.01,2013-06-20 06:30:00,
2013-06-20 02:32:00,73.5,72.0,30.01,NNE,12,0.0,0.0,95,0.00,,---,0.00,VWS V14.01,2013-06-20 06:32:00,
2013-06-20 02:35:00,73.5,72.3,30.01,North,11,0.0,0.0,96,0.00,,---,0.00,VWS V14.01,2013-06-20 06:35:00,
2013-06-20 02:37:00,73.5,72.3,30.00,NNE,12,0.0,0.0,96,0.00,,---,0.00,VWS V14.01,2013-06-20 06:37:00,
2013-06-20 02:40:00,73.5,72.3,30.01,NNE,12,0.0,0.0,96,0.00,,---,0.00,VWS V14.01,2013-06-20 06:40:00,
2013-06-20 02:42:00,73.5,72.3,30.01,NNE,12,0.0,0.0,96,0.00,,---,0.00,VWS V14.01,2013-06-20 06:42:00,
2013-06-20 02:45:00,73.6,72.4,30.01,NNE,12,0.0,0.0,96,0.00,,---,0.00,VWS V14.01,2013-06-20 06:45:00,
2013-06-20 02:47:00,73.6,72.4,30.01,NNE,12,0.0,0.0,96,0.00,,---,0.00,VWS V14.01,2013-06-20 06:47:00,
2013-06-20 02:50:00,73.6,72.4,30.01,NNE,12,0.0,0.0,96,0.00,,---,0.00,VWS V14.01,2013-06-20 06:50:00,
2013-06-20 02:52:00,73.6,72.4,30.01,NNE,12,0.0,0.0,96,0.00,,---,0.00,VWS V14.01,2013-06-20 06:52:00,
2013-06-20 02:55:00,73.5,72.3,30.01,North,11,0.0,0.0,96,0.00,,---,0.00,VWS V14.01,2013-06-20 06:55:00,
2013-06-20 02:57:00,73.5,72.3,30.01,North,11,0.0,0.0,96,0.00,,---,0.00,VWS V14.01,2013-06-20 06:57:00,
2013-06-20 03:00:00,73.4,72.2,30.01,North,11,0.0,0.0,96,0.00,,---,0.00,VWS V14.01,2013-06-20 07:00:00,
2013-06-20 03:02:00,73.4,72.2,30.00,NNE,12,0.0,0.0,96,0.00,,---,0.00,VWS V14.01,2013-06-20 07:02:00,
2013-06-20 03:05:00,73.5,72.3,30.00,NNE,12,0.0,0.0,96,0.00,,---,0.00,VWS V14.01,2013-06-20 07:05:00,
2013-06-20 03:07:00,73.5,72.3,30.00,NNE,12,0.0,0.0,96,0.00,,---,0.00,VWS V14.01,2013-06-20 07:07:00,
2013-06-20 03:10:00,73.4,72.2,30.00,NNE,12,0.0,0.0,96,0.00,,---,0.00,VWS V14.01,2013-06-20 07:10:00,
2013-06-20 03:12:00,73.4,72.2,30.00,North,11,0.0,0.0,96,0.00,,---,0.00,VWS V14.01,2013-06-20 07:12:00,
2013-06-20 03:15:00,73.5,72.3,30.01,North,11,0.0,0.0,96,0.00,,---,0.00,VWS V14.01,2013-06-20 07:15:00,
2013-06-20 03:17:00,73.4,72.2,30.01,NNE,12,0.0,0.0,96,0.00,,---,0.00,VWS V14.01,2013-06-20 07:17:00,
2013-06-20 03:20:00,73.5,72.3,30.01,NNE,12,0.0,0.0,96,0.00,,---,0.00,VWS V14.01,2013-06-20 07:20:00,
2013-06-20 03:22:00,73.5,72.3,30.00,NNE,12,0.0,0.0,96,0.00,,---,0.00,VWS V14.01,2013-06-20 07:22:00,
2013-06-20 03:25:00,73.5,72.3,30.01,NNE,12,0.0,0.0,96,0.00,,---,0.00,VWS V14.01,2013-06-20 07:25:00,
2013-06-20 03:27:00,73.6,72.4,30.01,North,11,0.0,0.0,96,0.00,,---,0.00,VWS V14.01,2013-06-20 07:27:00,
2013-06-20 03:30:00,73.7,72.5,30.01,North,11,0.0,0.0,96,0.00,,---,0.00,VWS V14.01,2013-06-20 07:30:00,
2013-06-20 03:32:00,73.7,72.5,30.00,NNE,12,0.0,0.0,96,0.00,,---,0.00,VWS V14.01,2013-06-20 07:32:00,
2013-06-20 03:35:00,73.6,72.4,30.00,NNE,12,0.0,0.0,96,0.00,,---,0.00,VWS V14.01,2013-06-20 07:35:00,
2013-06-20 03:37:00,73.6,72.4,30.00,NNE,12,0.0,0.0,96,0.00,,---,0.00,VWS V14.01,2013-06-20 07:37:00,
2013-06-20 03:40:00,73.6,72.4,30.00,NNE,12,0.0,0.0,96,0.00,,---,0.00,VWS V14.01,2013-06-20 07:40:00,
2013-06-20 03:42:00,73.6,72.4,30.00,North,11,0.0,0.0,96,0.00,,---,0.00,VWS V14.01,2013-06-20 07:42:00,
2013-06-20 03:45:00,73.7,72.5,30.00,NNE,12,0.0,0.0,96,0.00,,---,0.00,VWS V14.01,2013-06-20 07:45:00,
2013-06-20 03:47:00,73.7,72.5,30.00,NNE,12,0.0,0.0,96,0.00,,---,0.00,VWS V14.01,2013-06-20 07:47:00,
2013-06-20 03:50:00,73.8,72.6,30.00,NNE,12,0.0,0.0,96,0.00,,---,0.00,VWS V14.01,2013-06-20 07:50:00,
2013-06-20 03:52:00,73.8,72.6,30.00,NNE,12,0.0,0.0,96,0.00,,---,0.00,VWS V14.01,2013-06-20 07:52:00,
2013-06-20 03:55:00,73.8,72.6,30.00,North,11,0.0,0.0,96,0.00,,---,0.00,VWS V14.01,2013-06-20 07:55:00,
2013-06-20 03:57:00,73.8,72.6,30.00,NNE,12,0.0,0.0,96,0.00,,---,0.00,VWS V14.01,2013-06-20 07:57:00,
2013-06-20 04:00:00,73.9,72.7,30.00,NNE,12,0.0,0.0,96,0.00,,---,0.00,VWS V14.01,2013-06-20 08:00:00,
2013-06-20 04:02:00,73.9,72.7,30.00,NNE,12,0.0,0.0,96,0.00,,---,0.00,VWS V14.01,2013-06-20 08:02:00,
2013-06-20 04:05:00,73.9,72.7,30.00,North,11,0.0,0.0,96,0.00,,---,0.00,VWS V14.01,2013-06-20 08:05:00,
2013-06-20 04:07:00,73.9,72.7,30.00,NNE,12,0.0,0.0,96,0.00,,---,0.00,VWS V14.01,2013-06-20 08:07:00,
2013-06-20 04:10:00,74.0,72.8,30.00,North,11,0.0,0.0,96,0.00,,---,0.00,VWS V14.01,2013-06-20 08:10:00,
2013-06-20 04:12:00,74.0,72.8,30.00,NNE,12,0.0,0.0,96,0.00,,---,0.00,VWS V14.01,2013-06-20 08:12:00,
2013-06-20 04:15:00,74.1,72.9,30.00,North,11,0.0,0.0,96,0.00,,---,0.00,VWS V14.01,2013-06-20 08:15:00,
2013-06-20 04:17:00,74.1,72.9,30.00,NNE,12,0.0,0.0,96,0.00,,---,0.00,VWS V14.01,2013-06-20 08:17:00,
2013-06-20 04:20:00,74.0,72.8,30.00,NNE,12,0.0,0.0,96,0.00,,---,0.00,VWS V14.01,2013-06-20 08:20:00,
2013-06-20 04:22:00,74.0,72.8,30.00,North,11,0.0,0.0,96,0.00,,---,0.00,VWS V14.01,2013-06-20 08:22:00,
2013-06-20 04:25:00,74.0,72.8,30.00,NNE,12,0.0,0.0,96,0.00,,---,0.00,VWS V14.01,2013-06-20 08:25:00,
2013-06-20 04:27:00,74.0,72.8,30.00,NNE,12,0.0,0.0,96,0.00,,---,0.00,VWS V14.01,2013-06-20 08:27:00,
2013-06-20 04:30:00,74.0,72.8,30.00,North,11,0.0,0.0,96,0.00,,---,0.00,VWS V14.01,2013-06-20 08:30:00,
2013-06-20 04:32:00,74.0,72.8,30.00,NNE,12,0.0,0.0,96,0.00,,---,0.00,VWS V14.01,2013-06-20 08:32:00,
2013-06-20 04:35:00,74.1,72.9,30.00,North,11,0.0,0.0,96,0.00,,---,0.00,VWS V14.01,2013-06-20 08:35:00,
2013-06-20 04:37:00,74.1,72.9,30.00,NNE,12,0.0,0.0,96,0.00,,---,0.00,VWS V14.01,2013-06-20 08:37:00,
2013-06-20 04:40:00,74.2,73.0,30.00,NNE,12,0.0,0.0,96,0.00,,---,0.00,VWS V14.01,2013-06-20 08:40:00,
2013-06-20 04:42:00,74.1,72.9,30.00,NNE,12,0.0,0.0,96,0.00,,---,0.00,VWS V14.01,2013-06-20 08:42:00,
2013-06-20 04:45:00,74.1,72.9,30.01,NNE,12,2.0,3.0,96,0.00,,---,0.00,VWS V14.01,2013-06-20 08:45:00,
2013-06-20 04:47:00,74.1,72.9,30.01,NNE,12,3.0,3.0,96,0.00,,---,0.00,VWS V14.01,2013-06-20 08:47:00,
2013-06-20 04:50:00,74.1,72.9,30.01,NNE,12,1.0,4.0,96,0.00,,---,0.00,VWS V14.01,2013-06-20 08:50:00,
2013-06-20 04:52:00,74.1,72.9,30.01,North,11,1.0,4.0,96,0.00,,---,0.00,VWS V14.01,2013-06-20 08:52:00,
2013-06-20 04:55:00,74.1,72.6,30.01,NNE,14,2.0,6.0,95,0.00,,---,0.00,VWS V14.01,2013-06-20 08:55:00,
2013-06-20 04:57:00,74.1,72.6,30.01,NNE,20,2.0,6.0,95,0.00,,---,0.00,VWS V14.01,2013-06-20 08:57:00,
2013-06-20 05:00:00,74.1,72.6,30.01,NNE,21,1.0,4.0,95,0.00,,---,0.00,VWS V14.01,2013-06-20 09:00:00,
2013-06-20 05:02:00,74.2,72.7,30.01,NNE,21,5.0,5.0,95,0.00,,---,0.00,VWS V14.01,2013-06-20 09:02:00,
2013-06-20 05:05:00,73.9,72.4,30.01,NNE,29,4.0,7.0,95,0.01,,---,0.01,VWS V14.01,2013-06-20 09:05:00,
2013-06-20 05:07:00,73.8,72.3,30.01,NNE,29,6.0,7.0,95,0.01,,---,0.01,VWS V14.01,2013-06-20 09:07:00,
2013-06-20 05:10:00,73.7,72.2,30.01,NNE,30,7.0,7.0,95,0.01,,---,0.01,VWS V14.01,2013-06-20 09:10:00,
2013-06-20 05:12:00,73.7,72.2,30.01,NNE,31,6.0,7.0,95,0.01,,---,0.01,VWS V14.01,2013-06-20 09:12:00,
2013-06-20 05:15:00,73.6,72.1,30.01,NE,34,2.0,6.0,95,0.01,,---,0.01,VWS V14.01,2013-06-20 09:15:00,
2013-06-20 05:17:00,73.6,72.1,30.01,NE,34,3.0,5.0,95,0.01,,---,0.01,VWS V14.01,2013-06-20 09:17:00,
2013-06-20 05:20:00,73.7,72.2,30.01,NE,34,4.0,5.0,95,0.01,,---,0.01,VWS V14.01,2013-06-20 09:20:00,
2013-06-20 05:22:00,73.7,72.2,30.02,NE,34,3.0,4.0,95,0.01,,---,0.01,VWS V14.01,2013-06-20 09:22:00,
2013-06-20 05:25:00,73.7,72.5,30.02,NE,34,2.0,3.0,96,0.01,,---,0.01,VWS V14.01,2013-06-20 09:25:00,
2013-06-20 05:27:00,73.7,72.2,30.02,NE,34,1.0,3.0,95,0.01,,---,0.01,VWS V14.01,2013-06-20 09:27:00,
2013-06-20 05:30:00,73.5,72.0,30.02,NE,34,3.0,6.0,95,0.01,,---,0.01,VWS V14.01,2013-06-20 09:30:00,
2013-06-20 05:32:00,73.5,72.0,30.02,NE,34,2.0,6.0,95,0.01,,---,0.01,VWS V14.01,2013-06-20 09:32:00,
2013-06-20 05:35:00,73.4,71.9,30.02,NE,34,2.0,4.0,95,0.01,,---,0.01,VWS V14.01,2013-06-20 09:35:00,
2013-06-20 05:37:00,73.4,71.9,30.02,NE,34,3.0,4.0,95,0.01,,---,0.01,VWS V14.01,2013-06-20 09:37:00,
2013-06-20 05:40:00,73.3,71.8,30.02,NE,34,1.0,3.0,95,0.01,,---,0.01,VWS V14.01,2013-06-20 09:40:00,
2013-06-20 05:42:00,73.3,71.8,30.02,NE,34,2.0,3.0,95,0.01,,---,0.01,VWS V14.01,2013-06-20 09:42:00,
2013-06-20 05:45:00,73.2,71.7,30.03,NE,34,2.0,4.0,95,0.01,,---,0.01,VWS V14.01,2013-06-20 09:45:00,
2013-06-20 05:47:00,73.2,71.7,30.03,NE,34,2.0,5.0,95,0.01,,---,0.01,VWS V14.01,2013-06-20 09:47:00,
2013-06-20 05:50:00,73.3,71.8,30.03,NE,34,1.0,3.0,95,0.01,,---,0.01,VWS V14.01,2013-06-20 09:50:00,
2013-06-20 05:52:00,73.3,71.8,30.03,NE,34,1.0,3.0,95,0.01,,---,0.01,VWS V14.01,2013-06-20 09:52:00,
2013-06-20 05:55:00,73.3,71.8,30.03,NE,34,2.0,3.0,95,0.01,,---,0.01,VWS V14.01,2013-06-20 09:55:00,
2013-06-20 05:57:00,73.3,71.8,30.03,NE,34,2.0,4.0,95,0.01,,---,0.01,VWS V14.01,2013-06-20 09:57:00,
2013-06-20 06:00:00,73.4,71.9,30.03,NE,34,1.0,2.0,95,0.01,,---,0.01,VWS V14.01,2013-06-20 10:00:00,
2013-06-20 06:02:00,73.4,71.9,30.04,NE,34,1.0,2.0,95,0.01,,---,0.01,VWS V14.01,2013-06-20 10:02:00,
2013-06-20 06:05:00,73.3,71.8,30.04,NE,34,2.0,4.0,95,0.01,,---,0.01,VWS V14.01,2013-06-20 10:05:00,
2013-06-20 06:07:00,73.4,71.9,30.04,NE,34,0.0,4.0,95,0.00,,---,0.01,VWS V14.01,2013-06-20 10:07:00,
2013-06-20 06:10:00,73.3,71.8,30.03,NE,34,0.0,3.0,95,0.00,,---,0.01,VWS V14.01,2013-06-20 10:10:00,
2013-06-20 06:12:00,73.3,71.8,30.03,NE,34,2.0,3.0,95,0.00,,---,0.01,VWS V14.01,2013-06-20 10:12:00,
2013-06-20 06:15:00,73.3,71.8,30.03,NE,34,1.0,3.0,95,0.00,,---,0.01,VWS V14.01,2013-06-20 10:15:00,
2013-06-20 06:17:00,73.3,71.8,30.03,NE,34,4.0,4.0,95,0.00,,---,0.01,VWS V14.01,2013-06-20 10:17:00,
2013-06-20 06:20:00,73.3,71.8,30.03,NNE,33,1.0,4.0,95,0.00,,---,0.01,VWS V14.01,2013-06-20 10:20:00,
2013-06-20 06:22:00,73.3,71.8,30.03,NNE,32,3.0,4.0,95,0.00,,---,0.01,VWS V14.01,2013-06-20 10:22:00,
2013-06-20 06:25:00,73.5,72.0,30.04,East,96,1.0,3.0,95,0.00,,---,0.01,VWS V14.01,2013-06-20 10:25:00,
2013-06-20 06:27:00,73.5,72.0,30.04,East,95,1.0,3.0,95,0.00,,---,0.01,VWS V14.01,2013-06-20 10:27:00,
2013-06-20 06:30:00,73.5,72.0,30.04,East,91,3.0,3.0,95,0.00,,---,0.01,VWS V14.01,2013-06-20 10:30:00,
2013-06-20 06:33:00,73.5,72.0,30.04,East,91,2.0,3.0,95,0.00,,---,0.01,VWS V14.01,2013-06-20 10:33:00,
2013-06-20 06:35:00,73.4,71.9,30.04,East,91,2.0,4.0,95,0.00,,---,0.01,VWS V14.01,2013-06-20 10:35:00,
2013-06-20 06:38:00,73.4,71.9,30.04,East,84,4.0,4.0,95,0.00,,---,0.01,VWS V14.01,2013-06-20 10:38:00,
2013-06-20 06:40:00,73.4,71.9,30.04,East,84,1.0,4.0,95,0.00,,---,0.01,VWS V14.01,2013-06-20 10:40:00,
2013-06-20 06:43:00,73.4,71.9,30.04,East,84,1.0,4.0,95,0.00,,---,0.01,VWS V14.01,2013-06-20 10:43:00,
2013-06-20 06:45:00,73.5,72.0,30.05,East,90,2.0,3.0,95,0.00,,---,0.01,VWS V14.01,2013-06-20 10:45:00,
2013-06-20 06:48:00,73.6,72.1,30.05,ENE,62,2.0,3.0,95,0.00,,---,0.01,VWS V14.01,2013-06-20 10:48:00,
2013-06-20 06:50:00,73.6,72.1,30.05,ENE,60,4.0,6.0,95,0.00,,---,0.01,VWS V14.01,2013-06-20 10:50:00,
2013-06-20 06:53:00,73.6,72.1,30.05,ENE,61,3.0,6.0,95,0.00,,---,0.01,VWS V14.01,2013-06-20 10:53:00,
2013-06-20 06:55:00,73.5,72.0,30.05,ENE,59,3.0,7.0,95,0.00,,---,0.01,VWS V14.01,2013-06-20 10:55:00,
2013-06-20 06:58:00,73.5,72.0,30.05,ENE,59,2.0,7.0,95,0.00,,---,0.01,VWS V14.01,2013-06-20 10:58:00,
2013-06-20 07:00:00,73.5,72.0,30.05,ENE,59,5.0,7.0,95,0.00,,---,0.01,VWS V14.01,2013-06-20 11:00:00,
2013-06-20 07:03:00,73.5,72.0,30.05,ENE,59,4.0,7.0,95,0.00,,---,0.01,VWS V14.01,2013-06-20 11:03:00,
2013-06-20 07:05:00,73.6,72.1,30.05,ENE,59,4.0,7.0,95,0.00,,---,0.01,VWS V14.01,2013-06-20 11:05:00,
2013-06-20 07:08:00,73.6,72.1,30.06,ENE,59,4.0,6.0,95,0.00,,---,0.01,VWS V14.01,2013-06-20 11:08:00,
2013-06-20 07:10:00,73.6,72.1,30.06,ENE,59,5.0,7.0,95,0.00,,---,0.01,VWS V14.01,2013-06-20 11:10:00,
2013-06-20 07:13:00,73.6,72.1,30.06,ENE,57,9.0,9.0,95,0.00,,---,0.01,VWS V14.01,2013-06-20 11:13:00,
2013-06-20 07:15:00,73.5,72.0,30.06,NE,55,2.0,6.0,95,0.00,,---,0.01,VWS V14.01,2013-06-20 11:15:00,
2013-06-20 07:18:00,73.5,72.0,30.06,NE,55,5.0,5.0,95,0.00,,---,0.01,VWS V14.01,2013-06-20 11:18:00,
2013-06-20 07:20:00,73.6,72.1,30.06,NE,55,4.0,4.0,95,0.00,,---,0.01,VWS V14.01,2013-06-20 11:20:00,
2013-06-20 07:23:00,73.7,72.2,30.06,NE,44,4.0,5.0,95,0.00,,---,0.01,VWS V14.01,2013-06-20 11:23:00,
2013-06-20 07:25:00,73.7,72.2,30.06,NE,44,3.0,7.0,95,0.00,,---,0.01,VWS V14.01,2013-06-20 11:25:00,
2013-06-20 07:28:00,73.7,72.2,30.06,NE,44,7.0,7.0,95,0.00,,---,0.01,VWS V14.01,2013-06-20 11:28:00,
2013-06-20 07:30:00,73.6,72.1,30.06,NE,44,3.0,6.0,95,0.00,,---,0.01,VWS V14.01,2013-06-20 11:30:00,
2013-06-20 07:33:00,73.6,72.1,30.06,NE,44,4.0,6.0,95,0.00,,---,0.01,VWS V14.01,2013-06-20 11:33:00,
2013-06-20 07:35:00,73.7,72.2,30.06,NE,44,3.0,5.0,95,0.00,,---,0.01,VWS V14.01,2013-06-20 11:35:00,
2013-06-20 07:38:00,73.7,72.2,30.06,NE,44,4.0,5.0,95,0.00,,---,0.01,VWS V14.01,2013-06-20 11:38:00,
2013-06-20 07:40:00,73.7,72.2,30.06,NE,45,2.0,7.0,95,0.00,,---,0.01,VWS V14.01,2013-06-20 11:40:00,
2013-06-20 07:43:00,73.7,72.2,30.06,NE,46,3.0,7.0,95,0.00,,---,0.01,VWS V14.01,2013-06-20 11:43:00,
2013-06-20 07:45:00,73.8,72.3,30.06,NE,49,5.0,5.0,95,0.00,,---,0.01,VWS V14.01,2013-06-20 11:45:00,
2013-06-20 07:48:00,73.8,72.3,30.06,NE,50,4.0,6.0,95,0.00,,---,0.01,VWS V14.01,2013-06-20 11:48:00,
2013-06-20 07:50:00,73.9,72.4,30.06,NE,51,3.0,4.0,95,0.00,,---,0.01,VWS V14.01,2013-06-20 11:50:00,
2013-06-20 07:53:00,73.9,72.4,30.06,NE,50,4.0,4.0,95,0.00,,---,0.01,VWS V14.01,2013-06-20 11:53:00,
2013-06-20 07:55:00,74.0,72.5,30.07,NE,51,4.0,4.0,95,0.00,,---,0.01,VWS V14.01,2013-06-20 11:55:00,
2013-06-20 07:58:00,74.0,72.5,30.07,NE,51,0.0,4.0,95,0.00,,---,0.01,VWS V14.01,2013-06-20 11:58:00,
2013-06-20 08:00:00,74.2,72.7,30.07,NE,49,4.0,7.0,95,0.00,,---,0.01,VWS V14.01,2013-06-20 12:00:00,
2013-06-20 08:03:00,74.2,72.4,30.07,NE,49,6.0,6.0,94,0.00,,---,0.01,VWS V14.01,2013-06-20 12:03:00,
2013-06-20 08:05:00,74.3,72.8,30.08,NE,50,6.0,6.0,95,0.00,,---,0.01,VWS V14.01,2013-06-20 12:05:00,
2013-06-20 08:08:00,74.3,72.8,30.08,NE,54,9.0,10.0,95,0.00,,---,0.01,VWS V14.01,2013-06-20 12:08:00,
2013-06-20 08:10:00,74.2,72.4,30.08,ENE,57,4.0,8.0,94,0.00,,---,0.01,VWS V14.01,2013-06-20 12:10:00,
2013-06-20 08:13:00,74.2,72.4,30.08,ENE,59,5.0,8.0,94,0.00,,---,0.01,VWS V14.01,2013-06-20 12:13:00,
2013-06-20 08:15:00,74.4,72.6,30.08,ENE,57,5.0,5.0,94,0.00,,---,0.01,VWS V14.01,2013-06-20 12:15:00,
2013-06-20 08:18:00,74.5,72.7,30.08,NE,55,5.0,10.0,94,0.00,,---,0.01,VWS V14.01,2013-06-20 12:18:00,
2013-06-20 08:20:00,74.5,72.7,30.08,NE,51,4.0,10.0,94,0.00,,---,0.01,VWS V14.01,2013-06-20 12:20:00,
2013-06-20 08:23:00,74.5,72.7,30.08,NE,51,6.0,7.0,94,0.00,,---,0.01,VWS V14.01,2013-06-20 12:23:00,
2013-06-20 08:25:00,74.4,72.2,30.09,NE,52,5.0,9.0,93,0.00,,---,0.01,VWS V14.01,2013-06-20 12:25:00,
2013-06-20 08:28:00,74.4,72.2,30.09,NE,48,7.0,10.0,93,0.00,,---,0.01,VWS V14.01,2013-06-20 12:28:00,
2013-06-20 08:30:00,74.6,72.8,30.09,NE,46,7.0,7.0,94,0.00,,---,0.01,VWS V14.01,2013-06-20 12:30:00,
2013-06-20 08:33:00,74.6,72.4,30.09,NE,46,5.0,7.0,93,0.00,,---,0.01,VWS V14.01,2013-06-20 12:33:00,
2013-06-20 08:35:00,74.5,72.3,30.09,NE,44,5.0,11.0,93,0.00,,---,0.01,VWS V14.01,2013-06-20 12:35:00,
2013-06-20 08:38:00,74.5,72.3,30.09,NE,45,10.0,10.0,93,0.00,,---,0.01,VWS V14.01,2013-06-20 12:38:00,
2013-06-20 08:40:00,74.6,72.4,30.09,NE,46,5.0,6.0,93,0.00,,---,0.01,VWS V14.01,2013-06-20 12:40:00,
2013-06-20 08:43:00,74.6,72.4,30.09,NE,46,3.0,5.0,93,0.00,,---,0.01,VWS V14.01,2013-06-20 12:43:00,
2013-06-20 08:45:00,74.7,72.5,30.09,NE,46,3.0,7.0,93,0.00,,---,0.01,VWS V14.01,2013-06-20 12:45:00,
2013-06-20 08:48:00,74.8,72.6,30.09,NE,45,9.0,9.0,93,0.00,,---,0.01,VWS V14.01,2013-06-20 12:48:00,
2013-06-20 08:50:00,74.7,72.2,30.09,NE,49,5.0,9.0,92,0.00,,---,0.01,VWS V14.01,2013-06-20 12:50:00,
2013-06-20 08:53:00,74.7,72.2,30.09,NE,50,3.0,9.0,92,0.00,,---,0.01,VWS V14.01,2013-06-20 12:53:00,
2013-06-20 08:55:00,74.6,72.1,30.09,ENE,70,9.0,11.0,92,0.00,,---,0.01,VWS V14.01,2013-06-20 12:55:00,
2013-06-20 08:58:00,74.6,71.8,30.09,ENE,71,5.0,11.0,91,0.00,,---,0.01,VWS V14.01,2013-06-20 12:58:00,
2013-06-20 09:00:00,74.6,72.1,30.09,ENE,58,4.0,11.0,92,0.00,,---,0.01,VWS V14.01,2013-06-20 13:00:00,
2013-06-20 09:03:00,74.7,72.2,30.09,ENE,59,9.0,10.0,92,0.00,,---,0.01,VWS V14.01,2013-06-20 13:03:00,
2013-06-20 09:05:00,74.9,72.4,30.09,ENE,61,10.0,10.0,92,0.00,,---,0.01,VWS V14.01,2013-06-20 13:05:00,
2013-06-20 09:08:00,75.0,72.5,30.09,ENE,75,9.0,13.0,92,0.00,,---,0.01,VWS V14.01,2013-06-20 13:08:00,
2013-06-20 09:10:00,75.1,72.3,30.09,ENE,72,6.0,10.0,91,0.00,,---,0.01,VWS V14.01,2013-06-20 13:10:00,
2013-06-20 09:13:00,75.2,72.4,30.09,ENE,66,5.0,11.0,91,0.00,,---,0.01,VWS V14.01,2013-06-20 13:13:00,
2013-06-20 09:15:00,75.2,72.1,30.09,NE,51,11.0,15.0,90,0.00,,---,0.01,VWS V14.01,2013-06-20 13:15:00,
2013-06-20 09:18:00,75.2,72.1,30.09,ENE,61,10.0,12.0,90,0.00,,---,0.01,VWS V14.01,2013-06-20 13:18:00,
2013-06-20 09:20:00,75.2,72.1,30.09,ENE,69,11.0,11.0,90,0.00,,---,0.01,VWS V14.01,2013-06-20 13:20:00,
2013-06-20 09:23:00,75.3,72.2,30.09,ENE,68,8.0,11.0,90,0.00,,---,0.01,VWS V14.01,2013-06-20 13:23:00,
2013-06-20 09:25:00,75.1,72.0,30.09,ENE,71,3.0,15.0,90,0.00,,---,0.01,VWS V14.01,2013-06-20 13:25:00,
2013-06-20 09:28:00,75.2,72.1,30.09,ENE,59,10.0,15.0,90,0.00,,---,0.01,VWS V14.01,2013-06-20 13:28:00,
2013-06-20 09:30:00,75.3,72.2,30.09,ENE,73,10.0,15.0,90,0.00,,---,0.01,VWS V14.01,2013-06-20 13:30:00,
2013-06-20 09:33:00,75.3,71.8,30.09,ENE,63,7.0,10.0,89,0.00,,---,0.01,VWS V14.01,2013-06-20 13:33:00,
2013-06-20 09:35:00,75.4,71.9,30.09,ENE,64,12.0,12.0,89,0.00,,---,0.01,VWS V14.01,2013-06-20 13:35:00,
2013-06-20 09:38:00,75.4,71.9,30.09,NE,55,12.0,12.0,89,0.00,,---,0.01,VWS V14.01,2013-06-20 13:38:00,
2013-06-20 09:40:00,75.3,71.8,30.09,ENE,65,5.0,10.0,89,0.00,,---,0.01,VWS V14.01,2013-06-20 13:40:00,
2013-06-20 09:43:00,75.4,72.3,30.09,ENE,57,10.0,10.0,90,0.00,,---,0.01,VWS V14.01,2013-06-20 13:43:00,
2013-06-20 09:45:00,75.5,72.0,30.09,ENE,69,7.0,12.0,89,0.00,,---,0.01,VWS V14.01,2013-06-20 13:45:00,
2013-06-20 09:48:00,75.4,71.9,30.09,ENE,60,10.0,11.0,89,0.00,,---,0.01,VWS V14.01,2013-06-20 13:48:00,
2013-06-20 09:50:00,75.5,72.4,30.09,ENE,68,11.0,11.0,90,0.00,,---,0.01,VWS V14.01,2013-06-20 13:50:00,
2013-06-20 09:53:00,75.5,72.0,30.10,ENE,74,13.0,13.0,89,0.00,,---,0.01,VWS V14.01,2013-06-20 13:53:00,
2013-06-20 09:55:00,75.2,71.7,30.10,ENE,66,8.0,11.0,89,0.00,,---,0.01,VWS V14.01,2013-06-20 13:55:00,
2013-06-20 09:58:00,75.2,71.7,30.10,NE,51,7.0,9.0,89,0.00,,---,0.01,VWS V14.01,2013-06-20 13:58:00,
2013-06-20 10:00:00,75.4,72.3,30.10,ENE,63,3.0,7.0,90,0.00,,---,0.01,VWS V14.01,2013-06-20 14:00:00,
2013-06-20 10:03:00,75.5,72.0,30.10,ENE,59,4.0,9.0,89,0.00,,---,0.01,VWS V14.01,2013-06-20 14:03:00,
2013-06-20 10:05:00,75.8,72.7,30.10,NE,56,0.0,10.0,90,0.00,,---,0.01,VWS V14.01,2013-06-20 14:05:00,
2013-06-20 10:08:00,75.9,72.4,30.10,ENE,57,0.0,6.0,89,0.00,,---,0.01,VWS V14.01,2013-06-20 14:08:00,
2013-06-20 10:10:00,76.2,72.4,30.09,East,80,9.0,10.0,88,0.00,,---,0.01,VWS V14.01,2013-06-20 14:10:00,
2013-06-20 10:13:00,76.2,72.1,30.10,East,80,5.0,10.0,87,0.00,,---,0.01,VWS V14.01,2013-06-20 14:13:00,
2013-06-20 10:15:00,76.2,72.1,30.09,East,83,6.0,12.0,87,0.00,,---,0.01,VWS V14.01,2013-06-20 14:15:00,
2013-06-20 10:18:00,76.2,72.1,30.09,ENE,74,10.0,12.0,87,0.00,,---,0.01,VWS V14.01,2013-06-20 14:18:00,
2013-06-20 10:20:00,76.5,72.7,30.09,ENE,63,10.0,10.0,88,0.00,,---,0.01,VWS V14.01,2013-06-20 14:20:00,
2013-06-20 10:23:00,76.6,72.4,30.09,ENE,57,7.0,11.0,87,0.00,,---,0.01,VWS V14.01,2013-06-20 14:23:00,
2013-06-20 10:25:00,76.7,72.5,30.09,ENE,66,4.0,11.0,87,0.00,,---,0.01,VWS V14.01,2013-06-20 14:25:00,
2013-06-20 10:28:00,76.9,72.4,30.09,ESE,103,10.0,13.0,86,0.00,,---,0.01,VWS V14.01,2013-06-20 14:28:00,
2013-06-20 10:30:00,77.0,72.2,30.09,ESE,103,8.0,10.0,85,0.00,,---,0.01,VWS V14.01,2013-06-20 14:30:00,
2013-06-20 10:33:00,77.1,72.2,30.09,East,90,11.0,11.0,85,0.00,,---,0.01,VWS V14.01,2013-06-20 14:33:00,
2013-06-20 10:35:00,77.3,72.1,30.09,ENE,74,13.0,14.0,84,0.00,,---,0.01,VWS V14.01,2013-06-20 14:35:00,
2013-06-20 10:38:00,77.1,71.9,30.10,East,98,5.0,14.0,84,0.00,,---,0.01,VWS V14.01,2013-06-20 14:38:00,
2013-06-20 10:40:00,77.1,72.2,30.10,ENE,72,7.0,10.0,85,0.00,,---,0.01,VWS V14.01,2013-06-20 14:40:00,
2013-06-20 10:43:00,77.1,72.2,30.10,ENE,73,7.0,7.0,85,0.00,,---,0.01,VWS V14.01,2013-06-20 14:43:00,
2013-06-20 10:45:00,77.1,72.2,30.10,NE,41,9.0,10.0,85,0.00,,---,0.01,VWS V14.01,2013-06-20 14:45:00,
2013-06-20 10:49:00,77.2,72.3,30.10,NE,43,6.0,10.0,85,0.00,,---,0.01,VWS V14.01,2013-06-20 14:49:00,
2013-06-20 10:50:00,77.5,72.6,30.10,ENE,58,9.0,10.0,85,0.00,,---,0.01,VWS V14.01,2013-06-20 14:50:00,
2013-06-20 10:54:00,77.5,72.3,30.10,NE,53,5.0,9.0,84,0.00,,---,0.01,VWS V14.01,2013-06-20 14:54:00,
2013-06-20 10:55:00,77.5,72.3,30.10,ENE,60,7.0,10.0,84,0.00,,---,0.01,VWS V14.01,2013-06-20 14:55:00,
2013-06-20 10:59:00,77.3,71.7,30.10,ENE,69,10.0,11.0,83,0.00,,---,0.01,VWS V14.01,2013-06-20 14:59:00,
2013-06-20 11:00:00,77.3,72.1,30.10,ENE,65,8.0,12.0,84,0.00,,---,0.01,VWS V14.01,2013-06-20 15:00:00,
2013-06-20 11:04:00,77.5,72.3,30.10,ENE,64,11.0,11.0,84,0.00,,---,0.01,VWS V14.01,2013-06-20 15:04:00,
2013-06-20 11:05:00,78.3,73.4,30.10,ENE,57,11.0,13.0,85,0.00,,---,0.01,VWS V14.01,2013-06-20 15:05:00,
2013-06-20 11:09:00,78.5,72.9,30.10,East,80,9.0,13.0,83,0.00,,---,0.01,VWS V14.01,2013-06-20 15:09:00,
2013-06-20 11:10:00,78.7,72.4,30.10,ENE,72,8.0,11.0,81,0.00,,---,0.01,VWS V14.01,2013-06-20 15:10:00,
2013-06-20 11:14:00,78.5,72.2,30.10,ENE,76,8.0,11.0,81,0.00,,---,0.01,VWS V14.01,2013-06-20 15:14:00,
2013-06-20 11:15:00,78.3,72.7,30.11,ENE,61,9.0,9.0,83,0.00,,---,0.01,VWS V14.01,2013-06-20 15:15:00,
2013-06-20 11:19:00,78.2,71.9,30.11,ENE,57,4.0,13.0,81,0.00,,---,0.01,VWS V14.01,2013-06-20 15:19:00,
2013-06-20 11:20:00,78.0,72.1,30.11,ENE,76,3.0,11.0,82,0.00,,---,0.01,VWS V14.01,2013-06-20 15:20:00,
2013-06-20 11:24:00,78.1,72.2,30.11,East,83,3.0,10.0,82,0.00,,---,0.01,VWS V14.01,2013-06-20 15:24:00,
2013-06-20 11:25:00,78.0,72.1,30.11,NE,40,8.0,11.0,82,0.00,,---,0.01,VWS V14.01,2013-06-20 15:25:00,
2013-06-20 11:29:00,77.9,72.0,30.11,NE,51,5.0,12.0,82,0.00,,---,0.01,VWS V14.01,2013-06-20 15:29:00,
2013-06-20 11:30:00,78.1,72.9,30.11,ENE,78,7.0,9.0,84,0.00,,---,0.01,VWS V14.01,2013-06-20 15:30:00,
2013-06-20 11:34:00,78.1,72.5,30.11,ENE,76,6.0,10.0,83,0.00,,---,0.01,VWS V14.01,2013-06-20 15:34:00,
2013-06-20 11:35:00,78.1,72.2,30.12,East,79,6.0,11.0,82,0.00,,---,0.01,VWS V14.01,2013-06-20 15:35:00,
2013-06-20 11:39:00,78.0,72.1,30.12,ENE,72,7.0,11.0,82,0.00,,---,0.01,VWS V14.01,2013-06-20 15:39:00,
2013-06-20 11:40:00,77.8,71.9,30.12,ENE,70,2.0,10.0,82,0.00,,---,0.01,VWS V14.01,2013-06-20 15:40:00,
2013-06-20 11:44:00,77.7,72.1,30.12,ENE,69,5.0,5.0,83,0.00,,---,0.01,VWS V14.01,2013-06-20 15:44:00,
2013-06-20 11:45:00,77.6,71.7,30.12,ENE,67,4.0,11.0,82,0.00,,---,0.01,VWS V14.01,2013-06-20 15:45:00,
2013-06-20 11:49:00,77.7,72.1,30.12,ENE,74,0.0,9.0,83,0.00,,---,0.01,VWS V14.01,2013-06-20 15:49:00,
2013-06-20 11:50:00,77.9,72.0,30.12,ENE,61,3.0,9.0,82,0.00,,---,0.01,VWS V14.01,2013-06-20 15:50:00,
2013-06-20 11:54:00,78.2,72.3,30.12,ENE,69,5.0,7.0,82,0.00,,---,0.01,VWS V14.01,2013-06-20 15:54:00,
2013-06-20 11:55:00,78.6,72.3,30.12,East,90,3.0,9.0,81,0.00,,---,0.01,VWS V14.01,2013-06-20 15:55:00,
2013-06-20 11:59:00,78.7,72.0,30.11,East,82,6.0,11.0,80,0.00,,---,0.01,VWS V14.01,2013-06-20 15:59:00,
2013-06-20 12:00:00,78.6,72.3,30.12,East,84,5.0,10.0,81,0.00,,---,0.01,VWS V14.01,2013-06-20 16:00:00,
2013-06-20 12:04:00,78.6,72.3,30.12,East,85,2.0,7.0,81,0.00,,---,0.01,VWS V14.01,2013-06-20 16:04:00,
2013-06-20 12:05:00,79.1,73.5,30.11,East,83,3.0,3.0,83,0.00,,---,0.01,VWS V14.01,2013-06-20 16:05:00,
2013-06-20 12:09:00,79.2,72.9,30.12,East,84,4.0,9.0,81,0.00,,---,0.01,VWS V14.01,2013-06-20 16:09:00,
2013-06-20 12:10:00,79.1,71.7,30.12,East,92,10.0,13.0,78,0.00,,---,0.01,VWS V14.01,2013-06-20 16:10:00,
2013-06-20 12:14:00,79.1,72.0,30.12,ENE,76,8.0,11.0,79,0.00,,---,0.01,VWS V14.01,2013-06-20 16:14:00,
2013-06-20 12:15:00,79.1,71.7,30.12,ENE,67,9.0,13.0,78,0.00,,---,0.01,VWS V14.01,2013-06-20 16:15:00,
2013-06-20 12:19:00,78.9,71.8,30.12,ENE,59,12.0,13.0,79,0.00,,---,0.01,VWS V14.01,2013-06-20 16:19:00,
2013-06-20 12:20:00,78.7,71.3,30.12,East,80,8.0,13.0,78,0.00,,---,0.01,VWS V14.01,2013-06-20 16:20:00,
2013-06-20 12:24:00,78.7,71.6,30.12,ENE,74,5.0,10.0,79,0.00,,---,0.01,VWS V14.01,2013-06-20 16:24:00,
2013-06-20 12:25:00,78.8,71.7,30.12,ENE,77,2.0,7.0,79,0.00,,---,0.01,VWS V14.01,2013-06-20 16:25:00,
2013-06-20 12:29:00,78.9,71.8,30.12,East,86,7.0,7.0,79,0.00,,---,0.01,VWS V14.01,2013-06-20 16:29:00,
2013-06-20 12:30:00,78.6,71.6,30.12,East,82,10.0,12.0,79,0.00,,---,0.01,VWS V14.01,2013-06-20 16:30:00,
2013-06-20 12:34:00,78.3,71.3,30.12,East,82,4.0,14.0,79,0.00,,---,0.01,VWS V14.01,2013-06-20 16:34:00,
2013-06-20 12:35:00,78.1,70.7,30.12,ENE,76,4.0,10.0,78,0.00,,---,0.01,VWS V14.01,2013-06-20 16:35:00,
2013-06-20 12:39:00,78.3,71.3,30.12,ENE,78,3.0,10.0,79,0.00,,---,0.01,VWS V14.01,2013-06-20 16:39:00,
2013-06-20 12:40:00,78.9,71.8,30.12,East,80,10.0,10.0,79,0.00,,---,0.01,VWS V14.01,2013-06-20 16:40:00,
2013-06-20 12:44:00,79.0,71.6,30.12,East,80,7.0,12.0,78,0.00,,---,0.01,VWS V14.01,2013-06-20 16:44:00,
2013-06-20 12:45:00,78.6,71.2,30.12,ENE,71,10.0,12.0,78,0.00,,---,0.01,VWS V14.01,2013-06-20 16:45:00,
2013-06-20 12:49:00,78.4,71.7,30.12,ENE,74,9.0,11.0,80,0.00,,---,0.01,VWS V14.01,2013-06-20 16:49:00,
2013-06-20 12:50:00,78.0,71.0,30.12,East,86,7.0,10.0,79,0.00,,---,0.01,VWS V14.01,2013-06-20 16:50:00,
2013-06-20 12:54:00,77.8,70.8,30.12,East,81,4.0,12.0,79,0.00,,---,0.01,VWS V14.01,2013-06-20 16:54:00,
2013-06-20 12:55:00,78.2,71.5,30.12,ENE,74,3.0,10.0,80,0.00,,---,0.01,VWS V14.01,2013-06-20 16:55:00,
2013-06-20 12:59:00,78.4,71.7,30.12,East,91,5.0,10.0,80,0.00,,---,0.01,VWS V14.01,2013-06-20 16:59:00,
2013-06-20 13:00:00,78.4,71.0,30.12,East,92,5.0,11.0,78,0.00,,---,0.01,VWS V14.01,2013-06-20 17:00:00,
2013-06-20 13:04:00,78.3,71.3,30.12,ENE,68,7.0,12.0,79,0.00,,---,0.01,VWS V14.01,2013-06-20 17:04:00,
2013-06-20 13:05:00,78.2,71.2,30.12,ENE,69,5.0,13.0,79,0.00,,---,0.01,VWS V14.01,2013-06-20 17:05:00,
2013-06-20 13:09:00,78.2,71.2,30.12,ENE,62,10.0,10.0,79,0.00,,---,0.01,VWS V14.01,2013-06-20 17:09:00,
2013-06-20 13:10:00,78.4,71.7,30.12,East,84,4.0,11.0,80,0.00,,---,0.01,VWS V14.01,2013-06-20 17:10:00,
2013-06-20 13:14:00,78.7,72.4,30.12,ENE,62,9.0,11.0,81,0.00,,---,0.01,VWS V14.01,2013-06-20 17:14:00,
2013-06-20 13:15:00,79.0,71.9,30.12,ENE,73,8.0,11.0,79,0.00,,---,0.01,VWS V14.01,2013-06-20 17:15:00,
2013-06-20 13:19:00,78.8,71.4,30.11,East,86,8.0,13.0,78,0.00,,---,0.01,VWS V14.01,2013-06-20 17:19:00,
2013-06-20 13:20:00,78.7,72.0,30.11,ENE,78,11.0,11.0,80,0.00,,---,0.01,VWS V14.01,2013-06-20 17:20:00,
2013-06-20 13:24:00,78.5,71.1,30.11,East,88,10.0,14.0,78,0.00,,---,0.01,VWS V14.01,2013-06-20 17:24:00,
2013-06-20 13:25:00,78.7,71.6,30.11,East,89,11.0,12.0,79,0.00,,---,0.01,VWS V14.01,2013-06-20 17:25:00,
2013-06-20 13:29:00,79.0,71.9,30.11,ESE,102,10.0,12.0,79,0.00,,---,0.01,VWS V14.01,2013-06-20 17:29:00,
2013-06-20 13:30:00,79.1,71.3,30.11,ENE,65,11.0,13.0,77,0.00,,---,0.01,VWS V14.01,2013-06-20 17:30:00,
2013-06-20 13:34:00,79.2,71.4,30.11,East,84,7.0,13.0,77,0.00,,---,0.01,VWS V14.01,2013-06-20 17:34:00,
2013-06-20 13:35:00,79.5,72.0,30.11,ENE,68,8.0,12.0,78,0.00,,---,0.01,VWS V14.01,2013-06-20 17:35:00,
2013-06-20 13:39:00,79.8,71.6,30.11,ENE,74,11.0,11.0,76,0.00,,---,0.01,VWS V14.01,2013-06-20 17:39:00,
2013-06-20 13:40:00,79.8,71.6,30.11,East,96,9.0,12.0,76,0.00,,---,0.01,VWS V14.01,2013-06-20 17:40:00,
2013-06-20 13:44:00,79.5,71.7,30.11,ENE,69,6.0,8.0,77,0.00,,---,0.01,VWS V14.01,2013-06-20 17:44:00,
2013-06-20 13:45:00,79.5,71.7,30.11,East,96,7.0,11.0,77,0.00,,---,0.01,VWS V14.01,2013-06-20 17:45:00,
2013-06-20 13:49:00,79.6,71.8,30.11,ENE,67,12.0,12.0,77,0.00,,---,0.01,VWS V14.01,2013-06-20 17:49:00,
2013-06-20 13:50:00,79.4,71.6,30.11,East,83,7.0,13.0,77,0.00,,---,0.01,VWS V14.01,2013-06-20 17:50:00,
2013-06-20 13:54:00,79.3,71.5,30.11,ENE,67,4.0,12.0,77,0.00,,---,0.01,VWS V14.01,2013-06-20 17:54:00,
2013-06-20 13:55:00,79.5,72.0,30.11,East,86,2.0,11.0,78,0.00,,---,0.01,VWS V14.01,2013-06-20 17:55:00,
2013-06-20 13:59:00,79.7,71.9,30.11,ENE,69,6.0,11.0,77,0.00,,---,0.01,VWS V14.01,2013-06-20 17:59:00,
2013-06-20 14:00:00,79.9,71.7,30.11,East,79,7.0,8.0,76,0.00,,---,0.01,VWS V14.01,2013-06-20 18:00:00,
2013-06-20 14:04:00,80.3,71.7,30.11,NE,53,10.0,13.0,75,0.00,,---,0.01,VWS V14.01,2013-06-20 18:04:00,
2013-06-20 14:05:00,80.3,72.1,30.11,ENE,71,11.0,11.0,76,0.00,,---,0.01,VWS V14.01,2013-06-20 18:05:00,
2013-06-20 14:09:00,80.2,72.3,30.11,ENE,63,7.0,10.0,77,0.00,,---,0.01,VWS V14.01,2013-06-20 18:09:00,
2013-06-20 14:10:00,80.4,71.8,30.11,East,86,3.0,7.0,75,0.00,,---,0.01,VWS V14.01,2013-06-20 18:10:00,
2013-06-20 14:14:00,80.4,72.2,30.11,East,83,9.0,9.0,76,0.00,,---,0.01,VWS V14.01,2013-06-20 18:14:00,
2013-06-20 14:15:00,80.4,71.4,30.11,East,80,7.0,8.0,74,0.00,,---,0.01,VWS V14.01,2013-06-20 18:15:00,
2013-06-20 14:19:00,80.6,71.9,30.11,ENE,63,5.0,7.0,75,0.00,,---,0.01,VWS V14.01,2013-06-20 18:19:00,
2013-06-20 14:20:00,80.9,72.6,30.11,ENE,61,3.0,6.0,76,0.00,,---,0.01,VWS V14.01,2013-06-20 18:20:00,
2013-06-20 14:25:00,81.0,71.9,30.11,East,79,10.0,10.0,74,0.00,,---,0.01,VWS V14.01,2013-06-20 18:25:00,
2013-06-20 14:30:00,80.6,71.9,30.11,ENE,66,4.0,9.0,75,0.00,,---,0.01,VWS V14.01,2013-06-20 18:30:00,
2013-06-20 14:35:00,80.2,71.6,30.11,East,92,4.0,10.0,75,0.00,,---,0.01,VWS V14.01,2013-06-20 18:35:00,
2013-06-20 14:40:00,79.2,72.1,30.11,East,89,7.0,9.0,79,0.00,,---,0.01,VWS V14.01,2013-06-20 18:40:00,
2013-06-20 14:45:00,78.0,72.1,30.11,East,85,5.0,10.0,82,0.00,,---,0.01,VWS V14.01,2013-06-20 18:45:00,
2013-06-20 14:50:00,77.9,72.0,30.11,East,90,6.0,9.0,82,0.00,,---,0.01,VWS V14.01,2013-06-20 18:50:00,
2013-06-20 14:55:00,78.7,72.4,30.11,ENE,76,5.0,5.0,81,0.00,,---,0.01,VWS V14.01,2013-06-20 18:55:00,
2013-06-20 15:00:00,79.2,72.5,30.11,East,98,0.0,9.0,80,0.00,,---,0.01,VWS V14.01,2013-06-20 19:00:00,
2013-06-20 15:05:00,79.3,72.6,30.11,East,95,0.0,13.0,80,0.00,,---,0.01,VWS V14.01,2013-06-20 19:05:00,
2013-06-20 15:10:00,79.6,72.9,30.10,ENE,70,16.0,16.0,80,0.00,,---,0.01,VWS V14.01,2013-06-20 19:10:00,
2013-06-20 15:15:00,79.6,72.5,30.10,East,91,13.0,14.0,79,0.00,,---,0.01,VWS V14.01,2013-06-20 19:15:00,
2013-06-20 15:20:00,79.1,72.4,30.10,East,90,17.0,17.0,80,0.00,,---,0.01,VWS V14.01,2013-06-20 19:20:00,
2013-06-20 15:25:00,78.4,71.7,30.10,East,94,10.0,14.0,80,0.00,,---,0.01,VWS V14.01,2013-06-20 19:25:00,
2013-06-20 15:30:00,77.4,71.8,30.10,East,86,5.0,11.0,83,0.00,,---,0.01,VWS V14.01,2013-06-20 19:30:00,
2013-06-20 15:35:00,77.5,71.9,30.10,East,86,4.0,5.0,83,0.00,,---,0.01,VWS V14.01,2013-06-20 19:35:00,
2013-06-20 15:40:00,77.9,72.0,30.10,ENE,67,3.0,7.0,82,0.00,,---,0.01,VWS V14.01,2013-06-20 19:40:00,
2013-06-20 15:45:00,78.2,72.3,30.10,ENE,75,5.0,6.0,82,0.00,,---,0.01,VWS V14.01,2013-06-20 19:45:00,
2013-06-20 15:50:00,78.4,71.7,30.10,East,83,7.0,12.0,80,0.00,,---,0.01,VWS V14.01,2013-06-20 19:50:00,
2013-06-20 15:55:00,78.5,71.8,30.10,East,85,9.0,12.0,80,0.00,,---,0.01,VWS V14.01,2013-06-20 19:55:00,
2013-06-20 16:00:00,78.6,71.9,30.10,NE,56,3.0,11.0,80,0.00,,---,0.01,VWS V14.01,2013-06-20 20:00:00,
2013-06-20 16:05:00,78.5,72.2,30.10,ENE,67,0.0,11.0,81,0.00,,---,0.01,VWS V14.01,2013-06-20 20:05:00,
2013-06-20 16:10:00,78.9,72.2,30.10,ENE,74,9.0,11.0,80,0.00,,---,0.01,VWS V14.01,2013-06-20 20:10:00,
2013-06-20 16:15:00,78.5,72.2,30.10,East,79,4.0,9.0,81,0.00,,---,0.01,VWS V14.01,2013-06-20 20:15:00,
2013-06-20 16:20:00,77.9,72.3,30.10,ENE,71,2.0,6.0,83,0.00,,---,0.01,VWS V14.01,2013-06-20 20:20:00,
2013-06-20 16:25:00,77.5,71.9,30.10,ENE,78,5.0,7.0,83,0.00,,---,0.01,VWS V14.01,2013-06-20 20:25:00,
2013-06-20 16:30:00,77.4,72.5,30.10,ENE,78,4.0,10.0,85,0.00,,---,0.01,VWS V14.01,2013-06-20 20:30:00,
2013-06-20 16:35:00,77.8,72.2,30.10,East,80,3.0,10.0,83,0.00,,---,0.01,VWS V14.01,2013-06-20 20:35:00,
2013-06-20 16:40:00,78.4,72.8,30.10,ENE,78,1.0,7.0,83,0.00,,---,0.01,VWS V14.01,2013-06-20 20:40:00,
2013-06-20 16:45:00,78.5,72.6,30.09,East,84,0.0,4.0,82,0.00,,---,0.01,VWS V14.01,2013-06-20 20:45:00,
2013-06-20 16:50:00,78.0,72.4,30.09,East,86,0.0,4.0,83,0.00,,---,0.01,VWS V14.01,2013-06-20 20:50:00,
2013-06-20 16:55:00,77.2,72.3,30.09,ENE,70,6.0,13.0,85,0.00,,---,0.01,VWS V14.01,2013-06-20 20:55:00,
2013-06-20 17:00:00,77.2,72.3,30.09,ENE,78,4.0,11.0,85,0.00,,---,0.01,VWS V14.01,2013-06-20 21:00:00,
2013-06-20 17:05:00,77.3,72.4,30.09,ENE,68,3.0,6.0,85,0.00,,---,0.01,VWS V14.01,2013-06-20 21:05:00,
2013-06-20 17:10:00,77.5,72.6,30.09,East,79,5.0,9.0,85,0.00,,---,0.01,VWS V14.01,2013-06-20 21:10:00,
2013-06-20 17:15:00,77.4,71.8,30.09,ENE,61,11.0,14.0,83,0.00,,---,0.01,VWS V14.01,2013-06-20 21:15:00,
2013-06-20 17:20:00,77.2,72.3,30.09,ENE,70,10.0,10.0,85,0.00,,---,0.01,VWS V14.01,2013-06-20 21:20:00,
2013-06-20 17:25:00,77.0,71.8,30.09,ENE,65,11.0,14.0,84,0.00,,---,0.01,VWS V14.01,2013-06-20 21:25:00,
2013-06-20 17:30:00,77.1,71.9,30.09,ENE,59,3.0,12.0,84,0.00,,---,0.01,VWS V14.01,2013-06-20 21:30:00,
2013-06-20 17:35:00,77.2,71.6,30.09,ENE,59,9.0,12.0,83,0.00,,---,0.01,VWS V14.01,2013-06-20 21:35:00,
2013-06-20 17:40:00,77.6,72.4,30.08,ENE,59,0.0,8.0,84,0.00,,---,0.01,VWS V14.01,2013-06-20 21:40:00,
2013-06-20 17:45:00,77.8,71.9,30.08,ENE,68,10.0,16.0,82,0.00,,---,0.01,VWS V14.01,2013-06-20 21:45:00,
2013-06-20 17:50:00,78.3,72.7,30.08,East,79,6.0,9.0,83,0.00,,---,0.01,VWS V14.01,2013-06-20 21:50:00,
2013-06-20 17:51:00,78.2,72.6,30.08,East,80,0.0,11.0,83,0.00,,---,0.01,VWS V14.01,2013-06-20 21:51:00,
2013-06-20 17:55:00,78.4,72.8,30.08,East,80,7.0,10.0,83,0.00,,---,0.01,VWS V14.01,2013-06-20 21:55:00,
2013-06-20 17:56:00,78.3,72.4,30.08,ENE,67,0.0,15.0,82,0.00,,---,0.01,VWS V14.01,2013-06-20 21:56:00,
2013-06-20 18:00:00,78.5,72.6,30.08,ENE,78,10.0,12.0,82,0.00,,---,0.01,VWS V14.01,2013-06-20 22:00:00,
2013-06-20 18:01:00,78.5,72.6,30.08,ENE,61,0.0,8.0,82,0.00,,---,0.01,VWS V14.01,2013-06-20 22:01:00,
2013-06-20 18:05:00,78.5,72.2,30.07,ENE,63,9.0,16.0,81,0.01,,---,0.02,VWS V14.01,2013-06-20 22:05:00,
2013-06-20 18:06:00,78.5,72.2,30.07,ENE,58,12.0,12.0,81,0.00,,---,0.01,VWS V14.01,2013-06-20 22:06:00,
2013-06-20 18:10:00,78.9,71.1,30.07,ESE,109,15.0,17.0,77,0.01,,---,0.02,VWS V14.01,2013-06-20 22:10:00,
2013-06-20 18:11:00,78.9,71.8,30.07,East,94,12.0,17.0,79,0.01,,---,0.02,VWS V14.01,2013-06-20 22:11:00,
2013-06-20 18:15:00,79.2,71.4,30.07,East,87,7.0,14.0,77,0.01,,---,0.02,VWS V14.01,2013-06-20 22:15:00,
2013-06-20 18:16:00,79.1,70.9,30.07,ENE,77,13.0,19.0,76,0.01,,---,0.02,VWS V14.01,2013-06-20 22:16:00,
2013-06-20 18:20:00,79.3,71.8,30.07,East,82,10.0,16.0,78,0.01,,---,0.02,VWS V14.01,2013-06-20 22:20:00,
2013-06-20 18:21:00,79.3,71.8,30.07,ENE,65,16.0,16.0,78,0.01,,---,0.02,VWS V14.01,2013-06-20 22:21:00,
2013-06-20 18:25:00,79.2,71.0,30.07,East,94,15.0,20.0,76,0.01,,---,0.02,VWS V14.01,2013-06-20 22:25:00,
2013-06-20 18:26:00,79.2,71.0,30.07,ENE,67,10.0,20.0,76,0.01,,---,0.02,VWS V14.01,2013-06-20 22:26:00,
2013-06-20 18:30:00,79.3,71.5,30.07,East,87,9.0,16.0,77,0.01,,---,0.02,VWS V14.01,2013-06-20 22:30:00,
2013-06-20 18:31:00,79.3,71.5,30.07,ESE,105,16.0,16.0,77,0.01,,---,0.02,VWS V14.01,2013-06-20 22:31:00,
2013-06-20 18:35:00,79.2,71.4,30.07,East,79,11.0,18.0,77,0.01,,---,0.02,VWS V14.01,2013-06-20 22:35:00,
2013-06-20 18:36:00,79.3,71.5,30.07,ENE,75,16.0,17.0,77,0.01,,---,0.02,VWS V14.01,2013-06-20 22:36:00,
2013-06-20 18:40:00,79.1,70.9,30.07,ENE,71,8.0,17.0,76,0.01,,---,0.02,VWS V14.01,2013-06-20 22:40:00,
2013-06-20 18:41:00,79.1,70.9,30.07,ENE,72,11.0,17.0,76,0.01,,---,0.02,VWS V14.01,2013-06-20 22:41:00,
2013-06-20 18:45:00,79.0,71.2,30.07,ENE,67,14.0,15.0,77,0.01,,---,0.02,VWS V14.01,2013-06-20 22:45:00,
2013-06-20 18:46:00,79.0,71.6,30.07,ENE,69,9.0,18.0,78,0.01,,---,0.02,VWS V14.01,2013-06-20 22:46:00,
2013-06-20 18:50:00,79.0,71.2,30.08,ENE,77,13.0,16.0,77,0.01,,---,0.02,VWS V14.01,2013-06-20 22:50:00,
2013-06-20 18:51:00,79.0,71.2,30.08,ENE,70,16.0,16.0,77,0.01,,---,0.02,VWS V14.01,2013-06-20 22:51:00,
2013-06-20 18:55:00,79.0,71.6,30.08,ENE,69,14.0,16.0,78,0.01,,---,0.02,VWS V14.01,2013-06-20 22:55:00,
2013-06-20 18:56:00,79.0,71.2,30.08,ENE,66,12.0,14.0,77,0.01,,---,0.02,VWS V14.01,2013-06-20 22:56:00,
2013-06-20 19:00:00,79.0,71.6,30.08,East,87,7.0,15.0,78,0.01,,---,0.02,VWS V14.01,2013-06-20 23:00:00,
2013-06-20 19:01:00,79.0,71.6,30.08,East,81,0.0,13.0,78,0.01,,---,0.02,VWS V14.01,2013-06-20 23:01:00,
2013-06-20 19:05:00,78.9,71.1,30.08,ENE,76,11.0,20.0,77,0.01,,---,0.02,VWS V14.01,2013-06-20 23:05:00,
2013-06-20 19:06:00,79.0,71.6,30.08,ENE,69,15.0,17.0,78,0.01,,---,0.02,VWS V14.01,2013-06-20 23:06:00,
2013-06-20 19:10:00,79.0,70.8,30.08,ENE,67,14.0,16.0,76,0.00,,---,0.02,VWS V14.01,2013-06-20 23:10:00,
2013-06-20 19:11:00,79.0,70.8,30.08,ENE,75,7.0,15.0,76,0.00,,---,0.02,VWS V14.01,2013-06-20 23:11:00,
2013-06-20 19:15:00,78.9,70.3,30.08,East,82,5.0,16.0,75,0.00,,---,0.02,VWS V14.01,2013-06-20 23:15:00,
2013-06-20 19:16:00,78.9,70.7,30.08,East,91,13.0,17.0,76,0.00,,---,0.02,VWS V14.01,2013-06-20 23:16:00,
2013-06-20 19:20:00,78.9,70.7,30.08,ESE,107,7.0,16.0,76,0.00,,---,0.02,VWS V14.01,2013-06-20 23:20:00,
2013-06-20 19:21:00,78.9,70.3,30.09,ENE,75,10.0,16.0,75,0.00,,---,0.02,VWS V14.01,2013-06-20 23:21:00,
2013-06-20 19:25:00,78.9,70.7,30.09,East,88,14.0,14.0,76,0.00,,---,0.02,VWS V14.01,2013-06-20 23:25:00,
2013-06-20 19:26:00,78.9,70.3,30.09,ENE,78,5.0,13.0,75,0.00,,---,0.02,VWS V14.01,2013-06-20 23:26:00,
2013-06-20 19:30:00,78.8,70.6,30.09,East,87,3.0,14.0,76,0.00,,---,0.02,VWS V14.01,2013-06-20 23:30:00,
2013-06-20 19:31:00,78.8,70.6,30.09,ENE,73,12.0,15.0,76,0.00,,---,0.02,VWS V14.01,2013-06-20 23:31:00,
2013-06-20 19:35:00,78.7,70.5,30.09,East,83,15.0,15.0,76,0.00,,---,0.02,VWS V14.01,2013-06-20 23:35:00,
2013-06-20 19:36:00,78.8,71.0,30.09,East,82,9.0,14.0,77,0.00,,---,0.02,VWS V14.01,2013-06-20 23:36:00,
2013-06-20 19:40:00,78.8,69.8,30.09,East,90,5.0,15.0,74,0.00,,---,0.02,VWS V14.01,2013-06-20 23:40:00,
2013-06-20 19:41:00,78.8,69.8,30.09,ENE,72,12.0,16.0,74,0.00,,---,0.02,VWS V14.01,2013-06-20 23:41:00,
2013-06-20 19:45:00,78.6,70.0,30.09,East,100,16.0,17.0,75,0.00,,---,0.02,VWS V14.01,2013-06-20 23:45:00,
2013-06-20 19:46:00,78.7,70.1,30.09,East,98,4.0,15.0,75,0.00,,---,0.02,VWS V14.01,2013-06-20 23:46:00,
2013-06-20 19:50:00,78.6,70.0,30.09,East,80,13.0,16.0,75,0.00,,---,0.02,VWS V14.01,2013-06-20 23:50:00,
2013-06-20 19:51:00,78.7,70.1,30.09,ESE,106,8.0,12.0,75,0.00,,---,0.02,VWS V14.01,2013-06-20 23:51:00,
2013-06-20 19:55:00,78.5,70.3,30.09,East,99,9.0,15.0,76,0.00,,---,0.02,VWS V14.01,2013-06-20 23:55:00,
2013-06-20 19:56:00,78.5,70.3,30.09,East,90,9.0,14.0,76,0.00,,---,0.02,VWS V14.01,2013-06-20 23:56:00,
2013-06-20 20:00:00,78.4,70.6,30.08,ENE,78,9.0,17.0,77,0.00,,---,0.02,VWS V14.01,2013-06-21 00:00:00,
2013-06-20 20:01:00,78.4,70.6,30.08,ESE,103,13.0,21.0,77,0.00,,---,0.02,VWS V14.01,2013-06-21 00:01:00,
2013-06-20 20:05:00,78.2,70.4,30.08,ENE,61,11.0,16.0,77,0.00,,---,0.02,VWS V14.01,2013-06-21 00:05:00,
2013-06-20 20:06:00,78.2,70.4,30.08,ENE,76,6.0,16.0,77,0.00,,---,0.02,VWS V14.01,2013-06-21 00:06:00,
2013-06-20 20:10:00,78.1,70.7,30.08,ENE,77,8.0,14.0,78,0.00,,---,0.02,VWS V14.01,2013-06-21 00:10:00,
2013-06-20 20:11:00,78.1,70.7,30.08,ENE,64,11.0,14.0,78,0.00,,---,0.02,VWS V14.01,2013-06-21 00:11:00,
2013-06-20 20:15:00,78.0,70.2,30.08,ENE,75,10.0,14.0,77,0.00,,---,0.02,VWS V14.01,2013-06-21 00:15:00,
2013-06-20 20:16:00,78.0,70.6,30.08,East,93,7.0,14.0,78,0.00,,---,0.02,VWS V14.01,2013-06-21 00:16:00,
2013-06-20 20:20:00,77.9,70.1,30.09,ENE,72,12.0,14.0,77,0.00,,---,0.02,VWS V14.01,2013-06-21 00:20:00,
2013-06-20 20:21:00,77.9,70.1,30.09,ENE,78,5.0,13.0,77,0.00,,---,0.02,VWS V14.01,2013-06-21 00:21:00,
2013-06-20 20:25:00,77.8,70.0,30.09,ENE,78,11.0,16.0,77,0.00,,---,0.02,VWS V14.01,2013-06-21 00:25:00,
2013-06-20 20:26:00,77.8,70.4,30.09,East,82,11.0,16.0,78,0.00,,---,0.02,VWS V14.01,2013-06-21 00:26:00,
2013-06-20 20:30:00,77.7,69.9,30.09,East,94,7.0,15.0,77,0.00,,---,0.02,VWS V14.01,2013-06-21 00:30:00,
2013-06-20 20:31:00,77.7,70.3,30.09,East,80,11.0,13.0,78,0.00,,---,0.02,VWS V14.01,2013-06-21 00:31:00,
2013-06-20 20:35:00,77.6,70.2,30.09,East,87,9.0,12.0,78,0.00,,---,0.02,VWS V14.01,2013-06-21 00:35:00,
2013-06-20 20:36:00,77.6,70.2,30.09,ENE,76,4.0,12.0,78,0.00,,---,0.02,VWS V14.01,2013-06-21 00:36:00,
2013-06-20 20:40:00,77.5,70.1,30.09,ENE,68,6.0,12.0,78,0.00,,---,0.02,VWS V14.01,2013-06-21 00:40:00,
2013-06-20 20:41:00,77.5,70.1,30.09,East,88,0.0,12.0,78,0.00,,---,0.02,VWS V14.01,2013-06-21 00:41:00,
2013-06-20 20:45:00,77.4,70.4,30.09,ESE,109,0.0,11.0,79,0.00,,---,0.02,VWS V14.01,2013-06-21 00:45:00,
2013-06-20 20:46:00,77.4,70.4,30.09,East,84,2.0,9.0,79,0.00,,---,0.02,VWS V14.01,2013-06-21 00:46:00,
2013-06-20 20:50:00,77.3,70.3,30.10,East,101,11.0,15.0,79,0.00,,---,0.02,VWS V14.01,2013-06-21 00:50:00,
2013-06-20 20:51:00,77.3,70.3,30.10,East,96,0.0,12.0,79,0.00,,---,0.02,VWS V14.01,2013-06-21 00:51:00,
2013-06-20 20:55:00,77.2,70.6,30.10,East,84,4.0,8.0,80,0.00,,---,0.02,VWS V14.01,2013-06-21 00:55:00,
2013-06-20 20:56:00,77.3,70.7,30.10,East,84,7.0,11.0,80,0.00,,---,0.02,VWS V14.01,2013-06-21 00:56:00,
2013-06-20 21:00:00,77.1,70.8,30.10,East,95,0.0,6.0,81,0.00,,---,0.02,VWS V14.01,2013-06-21 01:00:00,
2013-06-20 21:01:00,77.1,70.5,30.10,East,95,3.0,6.0,80,0.00,,---,0.02,VWS V14.01,2013-06-21 01:01:00,
2013-06-20 21:05:00,76.9,70.6,30.10,East,88,0.0,1.0,81,0.00,,---,0.02,VWS V14.01,2013-06-21 01:05:00,
2013-06-20 21:07:00,76.9,70.6,30.10,East,89,0.0,1.0,81,0.00,,---,0.02,VWS V14.01,2013-06-21 01:07:00,
2013-06-20 21:10:00,76.7,70.4,30.10,East,96,0.0,6.0,81,0.00,,---,0.02,VWS V14.01,2013-06-21 01:10:00,
2013-06-20 21:12:00,76.7,70.4,30.10,East,98,0.0,8.0,81,0.00,,---,0.02,VWS V14.01,2013-06-21 01:12:00,
2013-06-20 21:15:00,76.7,70.4,30.10,East,91,7.0,7.0,81,0.00,,---,0.02,VWS V14.01,2013-06-21 01:15:00,
2013-06-20 21:17:00,76.7,70.4,30.10,East,89,0.0,8.0,81,0.00,,---,0.02,VWS V14.01,2013-06-21 01:17:00,
2013-06-20 21:20:00,76.7,70.1,30.11,East,93,5.0,8.0,80,0.00,,---,0.02,VWS V14.01,2013-06-21 01:20:00,
2013-06-20 21:22:00,76.7,70.1,30.11,East,93,0.0,0.0,80,0.00,,---,0.02,VWS V14.01,2013-06-21 01:22:00,
2013-06-20 21:25:00,76.7,70.1,30.11,East,88,6.0,7.0,80,0.00,,---,0.02,VWS V14.01,2013-06-21 01:25:00,
2013-06-20 21:27:00,76.7,70.1,30.11,East,86,5.0,10.0,80,0.00,,---,0.02,VWS V14.01,2013-06-21 01:27:00,
2013-06-20 21:30:00,76.6,70.0,30.11,East,95,0.0,5.0,80,0.00,,---,0.02,VWS V14.01,2013-06-21 01:30:00,
2013-06-20 21:32:00,76.6,70.0,30.11,East,94,5.0,5.0,80,0.00,,---,0.02,VWS V14.01,2013-06-21 01:32:00,
2013-06-20 21:35:00,76.5,70.2,30.11,East,91,0.0,3.0,81,0.00,,---,0.02,VWS V14.01,2013-06-21 01:35:00,
2013-06-20 21:37:00,76.5,69.9,30.11,East,91,3.0,3.0,80,0.00,,---,0.02,VWS V14.01,2013-06-21 01:37:00,
2013-06-20 21:40:00,76.4,70.1,30.11,ESE,105,4.0,6.0,81,0.00,,---,0.02,VWS V14.01,2013-06-21 01:40:00,
2013-06-20 21:42:00,76.3,70.1,30.11,ESE,105,5.0,6.0,81,0.00,,---,0.02,VWS V14.01,2013-06-21 01:42:00,
2013-06-20 21:45:00,76.3,70.1,30.12,ESE,106,0.0,0.0,81,0.00,,---,0.02,VWS V14.01,2013-06-21 01:45:00,
2013-06-20 21:47:00,76.3,70.1,30.12,ESE,106,0.0,0.0,81,0.00,,---,0.02,VWS V14.01,2013-06-21 01:47:00,
2013-06-20 21:50:00,76.3,70.1,30.12,East,98,9.0,9.0,81,0.00,,---,0.02,VWS V14.01,2013-06-21 01:50:00,
2013-06-20 21:52:00,76.3,70.1,30.12,East,100,5.0,5.0,81,0.00,,---,0.02,VWS V14.01,2013-06-21 01:52:00,
2013-06-20 21:55:00,76.2,69.9,30.12,East,92,7.0,11.0,81,0.00,,---,0.02,VWS V14.01,2013-06-21 01:55:00,
2013-06-20 21:57:00,76.2,69.9,30.12,East,96,1.0,7.0,81,0.00,,---,0.02,VWS V14.01,2013-06-21 01:57:00,
2013-06-20 22:00:00,76.2,69.9,30.12,ESE,107,0.0,0.0,81,0.00,,---,0.02,VWS V14.01,2013-06-21 02:00:00,
2013-06-20 22:02:00,76.2,69.9,30.12,ESE,107,0.0,4.0,81,0.00,,---,0.02,VWS V14.01,2013-06-21 02:02:00,
2013-06-20 22:05:00,76.2,69.9,30.12,East,84,0.0,6.0,81,0.00,,---,0.02,VWS V14.01,2013-06-21 02:05:00,
2013-06-20 22:07:00,76.2,69.9,30.12,East,84,0.0,10.0,81,0.00,,---,0.02,VWS V14.01,2013-06-21 02:07:00,
2013-06-20 22:10:00,76.1,69.5,30.12,East,98,0.0,9.0,80,0.00,,---,0.02,VWS V14.01,2013-06-21 02:10:00,
2013-06-20 22:12:00,76.1,69.8,30.12,East,98,9.0,9.0,81,0.00,,---,0.02,VWS V14.01,2013-06-21 02:12:00,
2013-06-20 22:15:00,76.0,69.4,30.12,East,94,0.0,0.0,80,0.00,,---,0.02,VWS V14.01,2013-06-21 02:15:00,
2013-06-20 22:17:00,76.0,69.4,30.12,East,94,0.0,4.0,80,0.00,,---,0.02,VWS V14.01,2013-06-21 02:17:00,
2013-06-20 22:20:00,76.0,68.7,30.13,East,91,5.0,7.0,78,0.00,,---,0.02,VWS V14.01,2013-06-21 02:20:00,
2013-06-20 22:22:00,76.0,69.0,30.13,East,91,7.0,7.0,79,0.00,,---,0.02,VWS V14.01,2013-06-21 02:22:00,
2013-06-20 22:25:00,76.0,68.3,30.12,East,92,1.0,7.0,77,0.00,,---,0.02,VWS V14.01,2013-06-21 02:25:00,
2013-06-20 22:27:00,76.0,68.3,30.12,East,93,0.0,7.0,77,0.00,,---,0.02,VWS V14.01,2013-06-21 02:27:00,
2013-06-20 22:30:00,76.0,68.3,30.12,East,91,0.0,0.0,77,0.00,,---,0.02,VWS V14.01,2013-06-21 02:30:00,
2013-06-20 22:32:00,76.0,68.3,30.12,East,92,0.0,0.0,77,0.00,,---,0.02,VWS V14.01,2013-06-21 02:32:00,
2013-06-20 22:35:00,76.0,68.7,30.13,East,94,5.0,8.0,78,0.00,,---,0.02,VWS V14.01,2013-06-21 02:35:00,
2013-06-20 22:37:00,76.0,68.7,30.13,East,94,7.0,8.0,78,0.00,,---,0.02,VWS V14.01,2013-06-21 02:37:00,
2013-06-20 22:40:00,75.9,68.6,30.12,East,92,10.0,10.0,78,0.00,,---,0.02,VWS V14.01,2013-06-21 02:40:00,
2013-06-20 22:42:00,75.9,68.6,30.12,East,92,6.0,6.0,78,0.00,,---,0.02,VWS V14.01,2013-06-21 02:42:00,
2013-06-20 22:45:00,75.9,68.9,30.12,East,92,0.0,0.0,79,0.00,,---,0.02,VWS V14.01,2013-06-21 02:45:00,
2013-06-20 22:47:00,75.9,68.6,30.12,East,92,0.0,3.0,78,0.00,,---,0.02,VWS V14.01,2013-06-21 02:47:00,
2013-06-20 22:50:00,75.8,69.2,30.12,East,92,0.0,5.0,80,0.00,,---,0.02,VWS V14.01,2013-06-21 02:50:00,
2013-06-20 22:52:00,75.8,69.2,30.12,East,92,2.0,6.0,80,0.00,,---,0.02,VWS V14.01,2013-06-21 02:52:00,
2013-06-20 22:55:00,75.8,69.6,30.13,East,92,0.0,5.0,81,0.00,,---,0.02,VWS V14.01,2013-06-21 02:55:00,
2013-06-20 22:57:00,75.8,69.6,30.13,East,92,0.0,5.0,81,0.00,,---,0.02,VWS V14.01,2013-06-21 02:57:00,
2013-06-20 23:00:00,75.8,69.6,30.12,East,88,0.0,7.0,81,0.00,,---,0.02,VWS V14.01,2013-06-21 03:00:00,
2013-06-20 23:02:00,75.8,69.6,30.12,East,87,0.0,7.0,81,0.00,,---,0.02,VWS V14.01,2013-06-21 03:02:00,
2013-06-20 23:05:00,75.7,69.8,30.13,East,87,0.0,9.0,82,0.00,,---,0.02,VWS V14.01,2013-06-21 03:05:00,
2013-06-20 23:07:00,75.7,69.8,30.13,East,88,0.0,9.0,82,0.00,,---,0.02,VWS V14.01,2013-06-21 03:07:00,
2013-06-20 23:10:00,75.7,69.8,30.13,East,86,4.0,9.0,82,0.00,,---,0.02,VWS V14.01,2013-06-21 03:10:00,
2013-06-20 23:12:00,75.7,69.8,30.13,East,86,7.0,9.0,82,0.00,,---,0.02,VWS V14.01,2013-06-21 03:12:00,
2013-06-20 23:15:00,75.6,70.1,30.12,East,88,0.0,0.0,83,0.00,,---,0.02,VWS V14.01,2013-06-21 03:15:00,
2013-06-20 23:17:00,75.6,70.1,30.12,East,88,0.0,0.0,83,0.00,,---,0.02,VWS V14.01,2013-06-21 03:17:00,
2013-06-20 23:20:00,75.5,70.3,30.12,East,90,0.0,9.0,84,0.00,,---,0.02,VWS V14.01,2013-06-21 03:20:00,
2013-06-20 23:22:00,75.5,70.3,30.12,East,90,0.0,9.0,84,0.00,,---,0.02,VWS V14.01,2013-06-21 03:22:00,
2013-06-20 23:25:00,75.5,70.3,30.13,East,88,6.0,6.0,84,0.00,,---,0.02,VWS V14.01,2013-06-21 03:25:00,
2013-06-20 23:27:00,75.5,70.3,30.13,East,89,1.0,4.0,84,0.00,,---,0.02,VWS V14.01,2013-06-21 03:27:00,
2013-06-20 23:30:00,75.4,70.2,30.13,East,94,0.0,3.0,84,0.00,,---,0.02,VWS V14.01,2013-06-21 03:30:00,
2013-06-20 23:32:00,75.4,70.2,30.13,East,94,0.0,5.0,84,0.00,,---,0.02,VWS V14.01,2013-06-21 03:32:00,
2013-06-20 23:35:00,75.3,70.5,30.13,East,91,0.0,1.0,85,0.00,,---,0.02,VWS V14.01,2013-06-21 03:35:00,
2013-06-20 23:37:00,75.3,70.5,30.13,East,91,0.0,1.0,85,0.00,,---,0.02,VWS V14.01,2013-06-21 03:37:00,
2013-06-20 23:40:00,75.3,70.5,30.13,East,99,3.0,11.0,85,0.00,,---,0.02,VWS V14.01,2013-06-21 03:40:00,
2013-06-20 23:42:00,75.2,70.4,30.13,East,99,4.0,11.0,85,0.00,,---,0.02,VWS V14.01,2013-06-21 03:42:00,
2013-06-20 23:45:00,75.2,70.4,30.12,East,94,0.0,4.0,85,0.00,,---,0.02,VWS V14.01,2013-06-21 03:45:00,
2013-06-20 23:47:00,75.2,70.4,30.12,East,94,0.0,4.0,85,0.00,,---,0.02,VWS V14.01,2013-06-21 03:47:00,
2013-06-20 23:50:00,75.2,70.7,30.12,East,92,0.0,9.0,86,0.00,,---,0.02,VWS V14.01,2013-06-21 03:50:00,
2013-06-20 23:52:00,75.2,70.7,30.12,East,92,0.0,9.0,86,0.00,,---,0.02,VWS V14.01,2013-06-21 03:52:00,
2013-06-20 23:55:00,75.1,70.6,30.12,East,92,0.0,0.0,86,0.00,,---,0.02,VWS V14.01,2013-06-21 03:55:00,
2013-06-20 23:57:00,75.1,70.6,30.12,East,92,0.0,0.0,86,0.00,,---,0.02,VWS V14.01,2013-06-21 03:57:00,